Time;durP1;ratioP1;P1;durP2;ratioP2;P2;SDS_P1;SDS_P2;PMS_P1;PMS_P2;Temp;Humidity;BMP_temperature;BMP_pressure;BME280_temperature;BME280_humidity;BME280_pressure;Samples;Min_cycle;Max_cycle;Signal;HPM_P1;HPM_P2
2022/01/17 00:01:35;;;;;;;4.20;1.92;;;;;;;-3.35;79.58;97897.66;5041355;28;20045;-57
2022/01/17 00:04:01;;;;;;;3.55;1.85;;;;;;;-3.33;78.65;97874.88;5043645;28;20096;-57
2022/01/17 00:06:27;;;;;;;5.10;2.08;;;;;;;-3.49;79.83;97854.56;5054570;28;20044;-57
2022/01/17 00:08:53;;;;;;;4.35;2.00;;;;;;;-3.30;78.98;97849.56;5042502;28;20219;-57
2022/01/17 00:11:19;;;;;;;5.88;2.17;;;;;;;-3.27;78.63;97861.41;5046454;28;20038;-56
2022/01/17 00:13:47;;;;;;;4.45;2.22;;;;;;;-3.57;79.16;97802.25;5047012;28;20033;-56
2022/01/17 00:16:21;;;;;;;4.63;1.88;;;;;;;-3.35;79.07;97841.09;5034074;28;20033;-56
2022/01/17 00:21:14;;;;;;;7.68;2.33;;;;;;;-3.25;79.04;97829.34;5044344;28;20061;-57
2022/01/17 00:23:40;;;;;;;4.07;2.20;;;;;;;-3.37;78.55;97807.38;5046322;28;20101;-58
2022/01/17 00:26:06;;;;;;;2.65;1.65;;;;;;;-3.29;78.92;97815.84;5047099;28;20290;-57
2022/01/17 00:28:33;;;;;;;6.07;2.30;;;;;;;-3.21;78.64;97814.16;5044679;28;20457;-57
2022/01/17 00:31:04;;;;;;;5.53;2.47;;;;;;;-3.20;78.77;97822.63;5055344;28;20104;-57
2022/01/17 00:33:34;;;;;;;4.72;2.10;;;;;;;-3.23;79.17;97809.97;5050014;28;20089;-56
2022/01/17 00:36:00;;;;;;;5.05;2.30;;;;;;;-3.12;78.56;97798.19;5042385;28;20033;-57
2022/01/17 00:38:26;;;;;;;5.68;1.85;;;;;;;-3.09;77.80;97787.19;5053230;28;20033;-57
2022/01/17 00:40:51;;;;;;;7.15;2.25;;;;;;;-3.11;77.92;97779.59;5045970;28;20096;-56
2022/01/17 00:43:17;;;;;;;5.20;1.52;;;;;;;-2.97;77.62;97767.78;5045129;28;20025;-57
2022/01/17 00:45:44;;;;;;;4.30;1.80;;;;;;;-3.08;77.59;97759.34;5044584;28;20017;-56
2022/01/17 00:48:10;;;;;;;5.43;2.25;;;;;;;-3.03;77.67;97742.47;5044583;28;20029;-58
2022/01/17 00:50:40;;;;;;;3.53;1.75;;;;;;;-2.96;76.88;97728.16;5045019;28;20037;-58
2022/01/17 00:53:07;;;;;;;5.90;1.70;;;;;;;-3.00;77.58;97727.28;5042165;28;20039;-57
2022/01/17 00:55:35;;;;;;;4.53;1.90;;;;;;;-3.06;77.12;97699.44;5044499;28;20225;-56
2022/01/17 00:58:01;;;;;;;4.00;1.52;;;;;;;-2.78;77.14;97728.16;5050742;28;20130;-56
2022/01/17 01:00:27;;;;;;;5.80;1.75;;;;;;;-2.69;76.25;97727.31;5045854;28;20045;-56
2022/01/17 01:02:53;;;;;;;4.57;2.30;;;;;;;-2.74;75.82;97726.44;5045711;28;20326;-56
2022/01/17 01:05:19;;;;;;;3.08;1.60;;;;;;;-2.98;75.58;97709.56;5044684;28;20036;-57
2022/01/17 01:07:45;;;;;;;4.38;2.10;;;;;;;-2.95;75.47;97690.16;5045102;28;20033;-58
2022/01/17 01:10:12;;;;;;;4.85;1.70;;;;;;;-2.69;75.60;97726.47;5044607;28;20623;-56
2022/01/17 01:12:40;;;;;;;3.45;2.17;;;;;;;-2.68;74.60;97706.19;5048820;28;20033;-56
2022/01/17 01:15:14;;;;;;;3.47;1.80;;;;;;;-2.74;74.93;97708.72;5044396;28;20313;-57
2022/01/17 01:17:55;;;;;;;5.68;1.67;;;;;;;-2.83;74.73;97656.38;5044177;28;20033;-57
2022/01/17 01:28:29;;;;;;;4.78;1.63;;;;;;;-2.67;73.15;97662.25;5048633;28;20158;-57
2022/01/17 01:30:57;;;;;;;6.28;1.80;;;;;;;-2.57;73.87;97659.72;5046150;28;20065;-56
2022/01/17 01:33:28;;;;;;;2.97;1.48;;;;;;;-2.63;73.99;97647.91;5047179;28;20096;-57
2022/01/17 01:36:01;;;;;;;4.72;1.98;;;;;;;-2.64;73.78;97656.34;5047137;28;20089;-56
2022/01/17 01:38:27;;;;;;;3.45;1.92;;;;;;;-2.72;73.74;97643.72;5047100;28;20056;-57
2022/01/17 01:40:53;;;;;;;5.22;1.77;;;;;;;-2.64;74.12;97634.41;5052521;28;20057;-57
2022/01/17 01:43:18;;;;;;;2.75;1.60;;;;;;;-2.49;74.36;97658.03;5042830;28;20307;-57
2022/01/17 01:45:57;;;;;;;3.50;1.48;;;;;;;-2.50;73.43;97638.59;5042712;28;20064;-57
2022/01/17 01:48:23;;;;;;;5.10;1.70;;;;;;;-2.57;72.95;97617.50;5042470;28;20099;-57
2022/01/17 01:50:48;;;;;;;4.65;2.08;;;;;;;-2.51;72.87;97634.38;5047349;28;20037;-56
2022/01/17 01:53:14;;;;;;;3.22;1.60;;;;;;;-2.48;72.61;97644.50;5044730;28;20037;-56
2022/01/17 01:55:40;;;;;;;3.67;1.80;;;;;;;-2.51;72.39;97624.22;5045514;28;20072;-58
2022/01/17 01:58:05;;;;;;;5.13;1.60;;;;;;;-2.54;71.93;97609.03;5045298;28;20041;-56
2022/01/17 02:00:31;;;;;;;4.18;1.58;;;;;;;-2.53;72.97;97613.28;5046491;28;20029;-58
2022/01/17 02:02:57;;;;;;;3.90;1.70;;;;;;;-2.44;72.40;97605.63;5043958;28;20041;-57
2022/01/17 02:05:22;;;;;;;4.82;1.90;;;;;;;-2.52;73.60;97605.66;5043306;28;20041;-57
2022/01/17 02:07:48;;;;;;;5.00;1.98;;;;;;;-2.51;72.83;97604.81;5042629;28;20025;-57
2022/01/17 02:10:14;;;;;;;3.63;1.52;;;;;;;-2.60;72.45;97580.34;5042583;28;20040;-59
2022/01/17 02:12:40;;;;;;;2.33;1.20;;;;;;;-2.50;72.37;97578.63;5045095;28;20097;-58
2022/01/17 02:15:10;;;;;;;2.90;1.92;;;;;;;-2.36;72.55;97568.44;5044553;28;20033;-60
2022/01/17 02:17:44;;;;;;;5.07;1.70;;;;;;;-2.82;72.34;97490.06;5040354;28;20226;-56
2022/01/17 02:20:16;;;;;;;4.75;1.40;;;;;;;-2.94;71.23;97473.22;5047137;28;20036;-57
2022/01/17 02:22:42;;;;;;;2.63;1.60;;;;;;;-2.54;72.20;97533.03;5041055;28;20034;-56
2022/01/17 02:25:08;;;;;;;3.38;1.70;;;;;;;-2.41;72.21;97534.66;5040810;28;20047;-56
2022/01/17 02:27:34;;;;;;;5.72;2.00;;;;;;;-2.48;71.59;97523.72;5043546;28;20092;-57
2022/01/17 02:30:00;;;;;;;5.35;2.10;;;;;;;-2.37;70.56;97523.66;5042522;28;20215;-57
2022/01/17 02:32:25;;;;;;;6.60;1.95;;;;;;;-2.48;71.22;97500.06;5044008;28;20367;-58
2022/01/17 02:34:51;;;;;;;3.03;1.65;;;;;;;-2.40;71.45;97492.44;5040531;28;20040;-58
2022/01/17 02:37:18;;;;;;;5.80;2.25;;;;;;;-2.40;71.83;97488.19;5050674;28;20060;-57
2022/01/17 02:39:45;;;;;;;5.28;2.40;;;;;;;-2.44;70.81;97494.97;5042238;28;20044;-57
2022/01/17 02:42:15;;;;;;;4.15;2.20;;;;;;;-2.43;71.84;97489.03;5044034;28;20037;-56
2022/01/17 02:44:45;;;;;;;6.78;2.30;;;;;;;-2.48;70.78;97474.72;5047431;28;20025;-58
2022/01/17 02:47:11;;;;;;;7.07;3.15;;;;;;;-2.38;71.41;97483.97;5045310;28;20021;-58
2022/01/17 02:49:37;;;;;;;7.13;2.83;;;;;;;-2.30;71.51;97477.13;5041391;28;20132;-58
2022/01/17 02:52:03;;;;;;;8.68;2.47;;;;;;;-2.33;71.19;97476.34;5041804;28;20029;-57
2022/01/17 02:54:28;;;;;;;4.60;2.35;;;;;;;-2.37;70.98;97475.50;5042496;28;20081;-57
2022/01/17 02:56:54;;;;;;;6.60;2.40;;;;;;;-2.51;70.95;97454.47;5048628;28;20121;-56
2022/01/17 02:59:19;;;;;;;7.40;2.67;;;;;;;-2.34;71.51;97456.91;5042325;28;20038;-57
2022/01/17 03:01:45;;;;;;;5.80;2.22;;;;;;;-2.40;71.64;97456.94;5046650;28;20052;-56
2022/01/17 03:04:11;;;;;;;4.95;2.00;;;;;;;-2.34;71.13;97456.91;5047329;28;20120;-56
2022/01/17 03:06:36;;;;;;;4.50;2.40;;;;;;;-2.44;71.00;97448.50;5048390;28;20033;-57
2022/01/17 03:09:02;;;;;;;6.00;2.22;;;;;;;-2.45;71.18;97437.53;5043923;28;20029;-56
2022/01/17 03:11:28;;;;;;;4.20;2.03;;;;;;;-2.29;71.44;97432.38;5042960;28;20063;-56
2022/01/17 03:13:54;;;;;;;6.05;2.33;;;;;;;-2.34;72.12;97436.63;5044790;28;20037;-58
2022/01/17 03:16:29;;;;;;;4.65;2.00;;;;;;;-2.35;72.01;97424.78;5055889;28;20088;-58
2022/01/17 03:18:55;;;;;;;8.25;2.53;;;;;;;-2.39;70.88;97424.00;5034027;28;20025;-57
2022/01/17 03:21:20;;;;;;;3.95;2.28;;;;;;;-2.43;71.46;97435.81;5046875;28;20025;-57
2022/01/17 03:23:49;;;;;;;7.57;2.45;;;;;;;-2.32;70.68;97448.44;5040170;28;20256;-57
2022/01/17 03:26:15;;;;;;;4.53;1.80;;;;;;;-2.37;72.82;97424.81;5044993;28;20092;-57
2022/01/17 03:28:41;;;;;;;3.83;2.22;;;;;;;-2.33;72.16;97421.41;5042122;28;20038;-57
2022/01/17 03:31:08;;;;;;;2.80;1.60;;;;;;;-2.38;72.25;97423.16;5043036;28;20108;-57
2022/01/17 03:33:34;;;;;;;4.68;1.77;;;;;;;-2.47;72.32;97398.69;5035294;28;20093;-57
2022/01/17 03:36:00;;;;;;;8.05;2.55;;;;;;;-2.38;71.81;97407.94;5042324;28;20325;-58
2022/01/17 03:38:29;;;;;;;4.00;1.60;;;;;;;-2.74;72.11;97335.53;5040698;28;20036;-56
2022/01/17 03:40:55;;;;;;;5.20;1.80;;;;;;;-2.42;72.31;97393.59;5042700;28;20104;-56
2022/01/17 03:43:22;;;;;;;2.55;1.70;;;;;;;-2.74;71.99;97368.47;5048407;28;20045;-56
2022/01/17 03:45:49;;;;;;;4.40;1.60;;;;;;;-2.45;72.83;97391.09;5042016;28;20314;-55
2022/01/17 03:48:17;;;;;;;6.25;2.42;;;;;;;-2.37;72.46;97388.50;5042201;28;20033;-57
2022/01/17 03:50:42;;;;;;;3.08;1.70;;;;;;;-2.40;71.75;97383.44;5043680;28;20326;-57
2022/01/17 03:53:09;;;;;;;4.40;1.92;;;;;;;-2.53;72.42;97378.47;5033627;28;20037;-56
2022/01/17 03:55:36;;;;;;;4.72;1.67;;;;;;;-2.61;72.42;97373.47;5040385;28;20029;-56
2022/01/17 03:58:04;;;;;;;3.13;1.58;;;;;;;-2.56;71.91;97367.53;5039468;28;20040;-57
2022/01/17 04:00:32;;;;;;;4.60;2.00;;;;;;;-2.91;72.35;97300.19;5041350;28;20037;-58
2022/01/17 04:02:58;;;;;;;3.35;1.70;;;;;;;-2.48;72.37;97355.63;5048692;28;20281;-57
2022/01/17 04:05:24;;;;;;;4.90;1.90;;;;;;;-2.37;72.96;97347.94;5047260;28;20033;-57
2022/01/17 04:07:50;;;;;;;6.57;2.63;;;;;;;-2.38;72.84;97338.66;5043002;28;20052;-57
2022/01/17 04:10:16;;;;;;;5.40;2.13;;;;;;;-2.52;72.02;97336.22;5041539;28;20046;-57
2022/01/17 04:12:43;;;;;;;4.10;2.17;;;;;;;-2.92;72.58;97276.59;5041330;28;20030;-57
2022/01/17 04:15:10;;;;;;;4.15;1.80;;;;;;;-2.44;72.95;97330.28;5045407;28;20221;-57
2022/01/17 04:17:36;;;;;;;4.00;2.03;;;;;;;-2.53;72.81;97325.25;5042391;28;20092;-57
2022/01/17 04:20:08;;;;;;;3.97;1.80;;;;;;;-2.63;72.70;97304.22;5044242;28;20030;-57
2022/01/17 04:22:38;;;;;;;4.53;2.15;;;;;;;-2.54;72.80;97300.75;5040772;28;20033;-57
2022/01/17 04:25:05;;;;;;;3.77;2.20;;;;;;;-2.43;72.96;97308.28;5039127;28;20076;-57
2022/01/17 04:27:31;;;;;;;5.10;2.20;;;;;;;-2.40;72.76;97308.25;5040155;28;20873;-57
2022/01/17 04:29:57;;;;;;;6.30;2.67;;;;;;;-2.33;72.44;97296.38;5040674;28;20037;-56
2022/01/17 04:32:22;;;;;;;5.82;2.38;;;;;;;-2.28;72.92;97295.50;5042346;28;20088;-57
2022/01/17 04:34:48;;;;;;;7.38;2.45;;;;;;;-2.47;72.38;97268.63;5041393;28;20059;-56
2022/01/17 04:37:14;;;;;;;5.35;2.30;;;;;;;-2.43;72.02;97280.41;5041762;28;20029;-56
2022/01/17 04:39:40;;;;;;;5.97;3.10;;;;;;;-2.47;73.46;97269.44;5044358;28;20045;-56
2022/01/17 04:42:12;;;;;;;4.18;2.22;;;;;;;-2.44;72.06;97255.91;5024725;28;20033;-56
2022/01/17 04:47:23;;;;;;;6.00;2.45;;;;;;;-2.49;72.66;97239.94;5043820;28;20029;-56
2022/01/17 04:49:49;;;;;;;7.38;2.63;;;;;;;-2.46;73.20;97248.34;5042514;28;20049;-56
2022/01/17 04:52:14;;;;;;;5.47;2.63;;;;;;;-2.58;73.07;97240.84;5040838;28;20097;-56
2022/01/17 04:54:42;;;;;;;3.22;2.00;;;;;;;-2.65;72.94;97237.53;5044245;28;20032;-56
2022/01/17 04:57:09;;;;;;;3.58;2.30;;;;;;;-2.91;72.73;97169.38;5043026;28;20040;-56
2022/01/17 04:59:35;;;;;;;6.97;2.38;;;;;;;-2.67;73.25;97188.56;5045911;28;20041;-57
2022/01/17 05:02:01;;;;;;;5.10;2.70;;;;;;;-2.44;73.19;97221.31;5046664;28;20044;-57
2022/01/17 05:04:27;;;;;;;3.28;2.05;;;;;;;-2.36;74.34;97217.84;5046902;28;20277;-56
2022/01/17 05:06:52;;;;;;;5.22;2.50;;;;;;;-2.54;74.50;97198.59;5046168;28;20033;-56
2022/01/17 05:09:18;;;;;;;4.97;2.72;;;;;;;-2.60;76.26;97204.56;5045087;28;20036;-56
2022/01/17 05:11:43;;;;;;;3.58;2.15;;;;;;;-2.65;75.75;97202.06;5046233;28;20033;-56
2022/01/17 05:14:10;;;;;;;5.68;2.60;;;;;;;-2.57;76.88;97178.34;5060027;28;20029;-56
2022/01/17 05:16:42;;;;;;;5.95;2.13;;;;;;;-2.66;77.42;97192.78;5046780;28;20021;-56
2022/01/17 05:21:52;;;;;;;7.68;2.35;;;;;;;-2.61;77.68;97188.53;5051492;28;20025;-57
2022/01/17 05:24:17;;;;;;;5.93;2.35;;;;;;;-2.63;78.24;97185.16;5045365;28;20195;-57
2022/01/17 05:26:43;;;;;;;4.57;2.17;;;;;;;-2.62;78.63;97186.00;5043653;28;20029;-56
2022/01/17 05:29:08;;;;;;;4.97;2.03;;;;;;;-2.70;79.10;97177.63;5047231;28;20045;-57
2022/01/17 05:31:34;;;;;;;4.82;2.30;;;;;;;-2.81;78.48;97144.81;5042003;28;20025;-57
2022/01/17 05:33:59;;;;;;;5.82;2.70;;;;;;;-2.63;79.34;97175.03;5036449;28;20079;-56
2022/01/17 05:36:25;;;;;;;6.05;2.50;;;;;;;-2.67;79.40;97172.53;5043973;28;20365;-55
2022/01/17 05:38:52;;;;;;;6.82;2.80;;;;;;;-2.66;79.30;97169.16;5043747;28;20029;-56
2022/01/17 05:41:18;;;;;;;5.07;1.88;;;;;;;-2.64;78.98;97157.31;5047113;28;20330;-57
2022/01/17 05:43:44;;;;;;;5.63;2.55;;;;;;;-2.58;79.99;97156.41;5034274;28;20349;-55
2022/01/17 05:46:10;;;;;;;7.43;2.63;;;;;;;-2.75;80.50;97148.97;5046704;28;20025;-56
2022/01/17 05:48:35;;;;;;;4.68;2.38;;;;;;;-2.75;80.75;97156.56;5044126;28;20025;-56
2022/01/17 05:51:01;;;;;;;6.32;2.40;;;;;;;-2.63;80.23;97159.00;5039564;28;20061;-56
2022/01/17 05:53:26;;;;;;;8.70;3.17;;;;;;;-2.87;80.15;97125.44;5042292;28;20021;-56
2022/01/17 05:55:52;;;;;;;5.93;2.58;;;;;;;-2.65;80.13;97127.75;5043857;28;20221;-56
2022/01/17 05:58:17;;;;;;;6.72;2.78;;;;;;;-2.68;80.66;97127.78;5042065;28;20026;-57
2022/01/17 06:00:43;;;;;;;8.10;2.92;;;;;;;-2.62;80.82;97120.97;5042262;28;20120;-57
2022/01/17 06:03:08;;;;;;;4.38;2.17;;;;;;;-2.62;80.65;97105.78;5057586;28;20021;-56
2022/01/17 06:05:34;;;;;;;6.85;2.80;;;;;;;-2.60;80.57;97093.09;5049040;28;20063;-57
2022/01/17 06:07:59;;;;;;;6.10;2.90;;;;;;;-2.65;80.79;97066.97;5044895;28;20103;-58
2022/01/17 06:10:25;;;;;;;5.40;2.78;;;;;;;-2.70;81.34;97058.59;5043258;28;20103;-58
2022/01/17 06:12:51;;;;;;;7.35;2.70;;;;;;;-2.61;81.41;97045.81;5051211;28;20318;-57
2022/01/17 06:15:18;;;;;;;5.05;2.50;;;;;;;-2.60;80.78;97032.28;5039666;28;20025;-57
2022/01/17 06:17:45;;;;;;;6.25;2.42;;;;;;;-2.74;81.10;97055.25;5043384;28;20033;-58
2022/01/17 06:20:11;;;;;;;5.28;2.88;;;;;;;-2.80;81.36;97095.84;5044589;28;20029;-57
2022/01/17 06:22:37;;;;;;;5.35;2.90;;;;;;;-2.71;81.69;97105.88;5042432;28;20033;-57
2022/01/17 06:25:03;;;;;;;5.68;2.72;;;;;;;-2.66;82.23;97147.19;5043815;28;20336;-57
2022/01/17 06:27:29;;;;;;;6.72;3.22;;;;;;;-2.56;81.42;97197.78;5042494;28;20036;-58
2022/01/17 06:29:56;;;;;;;7.75;3.35;;;;;;;-2.52;80.87;97196.88;5043557;28;20038;-57
2022/01/17 06:32:21;;;;;;;7.47;3.25;;;;;;;-2.60;80.83;97214.69;5041209;28;20052;-58
2022/01/17 06:34:47;;;;;;;6.47;2.90;;;;;;;-2.61;81.13;97180.94;5042946;28;20291;-58
2022/01/17 06:37:13;;;;;;;7.05;3.15;;;;;;;-2.68;80.81;97140.47;5043811;28;20218;-58
2022/01/17 06:39:39;;;;;;;6.90;3.40;;;;;;;-2.68;81.03;97120.19;5042405;28;20032;-59
2022/01/17 06:42:05;;;;;;;8.90;3.30;;;;;;;-2.76;81.42;97097.50;5044552;28;20050;-58
2022/01/17 06:44:30;;;;;;;7.25;3.45;;;;;;;-2.83;81.09;97071.38;5044270;28;20044;-58
2022/01/17 06:46:56;;;;;;;5.43;3.28;;;;;;;-2.68;81.25;97034.94;5044076;28;20021;-58
2022/01/17 06:49:21;;;;;;;8.32;3.72;;;;;;;-2.74;81.68;97024.84;5043000;28;20217;-59
2022/01/17 06:51:47;;;;;;;7.55;3.67;;;;;;;-2.78;81.76;97040.94;5047912;28;20070;-58
2022/01/17 06:54:12;;;;;;;10.55;4.30;;;;;;;-2.65;81.66;97027.28;5042909;28;20099;-58
2022/01/17 06:56:43;;;;;;;8.75;3.60;;;;;;;-2.62;81.24;97037.38;5044519;28;20021;-58
2022/01/17 06:59:11;;;;;;;10.88;5.65;;;;;;;-2.93;81.11;97006.50;5046519;28;20040;-58
2022/01/17 07:01:38;;;;;;;10.32;3.58;;;;;;;-2.57;82.03;97017.06;5041149;28;20035;-57
2022/01/17 07:04:04;;;;;;;8.68;4.15;;;;;;;-2.83;81.70;97017.38;5042583;28;20105;-58
2022/01/17 07:06:30;;;;;;;9.93;4.05;;;;;;;-2.69;81.66;97005.38;5042370;28;20052;-57
2022/01/17 07:08:56;;;;;;;12.02;4.18;;;;;;;-2.73;81.65;97021.47;5043353;28;20178;-58
2022/01/17 07:11:22;;;;;;;11.70;4.22;;;;;;;-2.70;82.07;97026.50;5042256;28;20692;-58
2022/01/17 07:13:47;;;;;;;9.38;3.60;;;;;;;-2.57;81.12;97042.38;5043563;28;20059;-56
2022/01/17 07:16:13;;;;;;;8.90;4.28;;;;;;;-2.56;80.66;97026.34;5041668;28;20375;-57
2022/01/17 07:18:39;;;;;;;7.05;3.50;;;;;;;-2.51;81.69;97021.22;5041972;28;20033;-57
2022/01/17 07:21:05;;;;;;;6.72;4.05;;;;;;;-2.51;80.46;97017.00;5041478;28;20036;-58
2022/01/17 07:23:31;;;;;;;7.80;4.45;;;;;;;-2.61;81.78;97010.34;5042770;28;20036;-57
2022/01/17 07:25:56;;;;;;;10.15;4.53;;;;;;;-2.62;81.02;97027.25;5042718;28;20415;-58
2022/01/17 07:28:22;;;;;;;9.07;3.95;;;;;;;-2.61;81.37;96997.69;5042213;28;20416;-57
2022/01/17 07:30:48;;;;;;;9.88;4.45;;;;;;;-2.70;80.70;96985.97;5042035;28;20036;-57
2022/01/17 07:33:14;;;;;;;12.60;4.95;;;;;;;-2.78;81.82;96997.88;5038688;28;20245;-57
2022/01/17 07:35:40;;;;;;;12.75;4.80;;;;;;;-2.64;81.76;96996.06;5040447;28;20040;-57
2022/01/17 07:38:06;;;;;;;11.57;4.80;;;;;;;-2.48;81.43;96995.81;5042772;28;20037;-58
2022/01/17 07:40:33;;;;;;;11.23;4.85;;;;;;;-2.68;81.58;96989.34;5039527;28;20064;-59
2022/01/17 07:42:59;;;;;;;9.90;4.22;;;;;;;-2.57;82.19;96973.16;5041093;28;20289;-58
2022/01/17 07:45:27;;;;;;;10.15;5.07;;;;;;;-2.57;81.64;96947.84;5047193;28;20033;-58
2022/01/17 07:50:20;;;;;;;12.07;4.70;;;;;;;-2.59;82.09;96955.44;5043660;28;20025;-58
2022/01/17 07:52:47;;;;;;;12.68;4.20;;;;;;;-2.47;81.95;96926.56;5042431;28;20341;-58
2022/01/17 07:55:14;;;;;;;8.07;4.38;;;;;;;-2.89;82.03;96857.91;5043229;28;20050;-57
2022/01/17 07:57:41;;;;;;;10.10;4.80;;;;;;;-2.51;81.37;96923.25;5047660;28;20097;-57
2022/01/17 08:00:10;;;;;;;11.93;4.88;;;;;;;-2.53;81.46;96941.88;5051065;28;20033;-58
2022/01/17 08:02:36;;;;;;;13.95;5.32;;;;;;;-2.60;82.64;96931.78;5045958;28;20060;-58
2022/01/17 08:05:03;;;;;;;8.88;4.85;;;;;;;-2.68;82.44;96927.69;5042478;28;20318;-58
2022/01/17 08:07:29;;;;;;;11.23;4.95;;;;;;;-2.72;82.65;96929.44;5054436;28;20021;-57
2022/01/17 08:09:54;;;;;;;8.75;4.45;;;;;;;-2.63;82.82;96921.72;5042293;28;20265;-58
2022/01/17 08:12:20;;;;;;;8.98;4.53;;;;;;;-2.65;82.68;96920.06;5041824;28;20037;-58
2022/01/17 08:14:46;;;;;;;11.38;4.97;;;;;;;-2.53;82.97;96930.03;5041504;28;20113;-57
2022/01/17 08:17:11;;;;;;;10.75;4.78;;;;;;;-2.45;83.01;96909.66;5041372;28;20025;-57
2022/01/17 08:19:38;;;;;;;11.02;5.25;;;;;;;-2.52;82.29;96903.84;5040721;28;20030;-57
2022/01/17 08:22:06;;;;;;;11.60;4.95;;;;;;;-2.51;82.31;96924.94;5042374;28;20093;-57
2022/01/17 08:24:33;;;;;;;12.65;4.85;;;;;;;-2.39;82.22;96899.44;5045816;28;20033;-57
2022/01/17 08:26:59;;;;;;;8.00;5.13;;;;;;;-2.35;82.33;96911.19;5042589;28;20034;-57
2022/01/17 08:29:26;;;;;;;10.45;5.22;;;;;;;-2.33;81.98;96904.38;5040615;28;20028;-57
2022/01/17 08:31:52;;;;;;;9.65;4.90;;;;;;;-2.31;81.67;96896.75;5043738;28;20033;-57
2022/01/17 08:34:18;;;;;;;9.15;5.05;;;;;;;-2.17;81.54;96888.94;5048446;28;20029;-57
2022/01/17 08:36:45;;;;;;;10.48;4.85;;;;;;;-2.35;81.03;96885.00;5046907;28;20033;-57
2022/01/17 08:39:12;;;;;;;12.20;4.93;;;;;;;-2.49;80.75;96887.75;5053888;28;20033;-57
2022/01/17 08:41:42;;;;;;;11.10;5.78;;;;;;;-2.40;80.97;96889.31;5045892;28;20136;-58
2022/01/17 08:44:12;;;;;;;11.45;5.13;;;;;;;-2.36;81.32;96894.31;5041668;28;20032;-56
2022/01/17 08:46:38;;;;;;;12.82;5.55;;;;;;;-2.22;82.03;96894.09;5046179;28;20026;-57
2022/01/17 08:49:04;;;;;;;11.30;5.68;;;;;;;-2.13;81.22;96893.09;5049183;28;20040;-58
2022/01/17 08:51:30;;;;;;;11.48;5.22;;;;;;;-2.08;81.13;96884.56;5045123;28;20033;-57
2022/01/17 08:53:55;;;;;;;9.82;5.75;;;;;;;-1.94;80.68;96875.88;5045220;28;20057;-59
2022/01/17 08:56:21;;;;;;;10.52;4.97;;;;;;;-2.08;80.10;96873.59;5044518;28;20063;-57
2022/01/17 08:58:46;;;;;;;15.38;5.60;;;;;;;-2.13;80.25;96860.16;5044797;28;20029;-57
2022/01/17 09:01:13;;;;;;;9.23;4.57;;;;;;;-2.03;79.65;96868.44;5045672;28;20021;-57
2022/01/17 09:03:40;;;;;;;8.60;4.68;;;;;;;-2.07;78.58;96862.56;5045114;28;20048;-58
2022/01/17 09:06:06;;;;;;;8.48;4.50;;;;;;;-2.08;79.55;96863.47;5046095;28;20352;-57
2022/01/17 09:08:32;;;;;;;7.55;5.03;;;;;;;-1.99;78.59;96870.06;5049067;28;20025;-58
2022/01/17 09:10:58;;;;;;;10.68;5.07;;;;;;;-1.95;79.65;96857.28;5049919;28;20194;-57
2022/01/17 09:13:25;;;;;;;8.52;5.13;;;;;;;-1.99;78.47;96854.84;5043296;28;20031;-58
2022/01/17 09:15:52;;;;;;;9.02;5.05;;;;;;;-1.95;78.50;96848.88;5044754;28;20037;-58
2022/01/17 09:18:20;;;;;;;10.70;4.70;;;;;;;-1.99;79.00;96850.59;5044593;28;20033;-58
2022/01/17 09:20:47;;;;;;;9.70;5.03;;;;;;;-1.97;78.49;96836.19;5044523;28;20036;-58
2022/01/17 09:23:12;;;;;;;8.27;5.32;;;;;;;-1.99;78.63;96821.88;5045454;28;20025;-57
2022/01/17 09:25:39;;;;;;;10.52;5.57;;;;;;;-2.02;78.37;96829.53;5050726;28;20140;-57
2022/01/17 09:28:05;;;;;;;8.43;5.38;;;;;;;-2.05;78.90;96838.03;5044759;28;20099;-59
2022/01/17 09:30:31;;;;;;;8.27;5.43;;;;;;;-2.20;79.65;96844.19;5043424;28;20385;-57
2022/01/17 09:32:56;;;;;;;8.98;5.53;;;;;;;-2.13;79.70;96834.81;5043620;28;20157;-57
2022/01/17 09:35:23;;;;;;;9.27;5.40;;;;;;;-1.95;79.98;96829.41;5044102;28;20040;-57
2022/01/17 09:37:50;;;;;;;12.55;5.93;;;;;;;-1.99;79.85;96815.09;5043713;28;20037;-58
2022/01/17 09:40:17;;;;;;;9.40;5.45;;;;;;;-1.88;80.32;96819.13;5044919;28;20041;-58
2022/01/17 09:42:43;;;;;;;9.57;5.80;;;;;;;-2.01;79.40;96813.47;5043008;28;20041;-57
2022/01/17 09:45:13;;;;;;;10.00;5.90;;;;;;;-2.32;80.13;96748.13;5044790;28;20140;-58
2022/01/17 09:47:40;;;;;;;8.43;5.38;;;;;;;-2.20;79.66;96764.78;5058477;28;20330;-57
2022/01/17 09:50:12;;;;;;;11.52;5.95;;;;;;;-2.09;79.18;96788.25;5047073;28;20032;-58
2022/01/17 09:52:50;;;;;;;10.32;5.80;;;;;;;-2.39;79.12;96734.72;5043785;28;20234;-58
2022/01/17 09:55:22;;;;;;;13.90;6.68;;;;;;;-2.09;79.76;96827.09;5043181;28;20033;-57
2022/01/17 09:57:54;;;;;;;8.50;5.70;;;;;;;-2.41;80.03;96738.97;5043061;28;20041;-58
2022/01/17 10:00:25;;;;;;;10.10;5.95;;;;;;;-2.38;79.78;96717.81;5043352;28;20093;-58
2022/01/17 10:02:56;;;;;;;13.18;6.63;;;;;;;-1.99;80.67;96784.69;5043966;28;20036;-58
2022/01/17 10:05:24;;;;;;;13.93;7.15;;;;;;;-2.06;80.24;96788.19;5043919;28;20032;-57
2022/01/17 10:07:50;;;;;;;13.07;6.10;;;;;;;-2.01;81.32;96786.41;5049901;28;20032;-57
2022/01/17 10:10:15;;;;;;;9.52;6.30;;;;;;;-1.97;81.71;96775.31;5041919;28;20041;-59
2022/01/17 10:12:41;;;;;;;12.88;7.30;;;;;;;-1.94;81.55;96782.06;5040376;28;20103;-58
2022/01/17 10:15:12;;;;;;;11.05;6.88;;;;;;;-1.98;82.55;96778.75;5052760;28;20036;-57
2022/01/17 10:17:43;;;;;;;10.75;6.63;;;;;;;-2.21;83.20;96771.53;5045025;28;20318;-56
2022/01/17 10:20:11;;;;;;;;;;;;;;;-2.15;83.91;96760.47;5041292;28;20024;-58
2022/01/17 10:22:47;;;;;;;14.00;6.95;;;;;;;-2.16;83.72;96759.63;5041802;28;19909;-58
2022/01/17 10:28:37;;;;;;;13.65;7.20;;;;;;;-2.58;83.03;96703.78;5033175;28;20037;-58
2022/01/17 10:36:47;;;;;;;12.60;7.20;;;;;;;-2.34;82.00;96710.13;5044723;28;20032;-58
2022/01/17 10:39:14;;;;;;;11.95;7.93;;;;;;;-1.95;82.39;96760.94;5036284;28;20041;-57
2022/01/17 10:41:40;;;;;;;14.23;7.57;;;;;;;-1.93;82.26;96761.72;5038928;28;20053;-58
2022/01/17 10:44:06;;;;;;;14.90;8.07;;;;;;;-1.96;82.06;96756.72;5056413;28;20032;-57
2022/01/17 10:46:31;;;;;;;14.40;8.30;;;;;;;-2.18;82.43;96742.78;5044381;28;20037;-57
2022/01/17 10:48:58;;;;;;;13.05;7.78;;;;;;;-2.09;82.72;96709.66;5044134;28;20025;-58
2022/01/17 10:51:29;;;;;;;14.98;7.40;;;;;;;-2.14;81.75;96714.84;5055882;28;20032;-57
2022/01/17 10:53:55;;;;;;;13.00;7.60;;;;;;;-1.89;81.75;96721.13;5044162;28;20037;-57
2022/01/17 10:56:24;;;;;;;14.65;8.05;;;;;;;-2.38;81.53;96654.47;5043346;28;20029;-57
2022/01/17 10:59:01;;;;;;;13.60;7.47;;;;;;;-2.51;81.77;96669.91;5049394;28;20524;-58
2022/01/17 11:01:36;;;;;;;12.65;7.18;;;;;;;-1.88;82.16;96727.84;5054877;28;20036;-58
2022/01/17 11:04:08;;;;;;;15.20;7.93;;;;;;;-1.85;81.46;96728.63;5046943;28;20095;-57
2022/01/17 11:06:46;;;;;;;12.95;8.15;;;;;;;-1.94;81.35;96728.81;5038029;28;20037;-58
2022/01/17 11:09:12;;;;;;;13.80;7.85;;;;;;;-1.89;81.89;96721.94;5044082;28;20033;-57
2022/01/17 11:11:40;;;;;;;12.30;7.70;;;;;;;-2.09;81.82;96664.84;5042528;28;20043;-61
2022/01/17 11:14:09;;;;;;;15.95;7.55;;;;;;;-1.86;82.06;96718.53;5041585;28;20060;-58
2022/01/17 11:16:36;;;;;;;20.98;8.27;;;;;;;-2.07;81.75;96707.91;5036426;28;20124;-59
2022/01/17 11:20:02;;;;;;;15.07;8.25;;;;;;;-1.81;82.77;96715.03;5051130;28;20053;-58
2022/01/17 11:21:49;;;;;;;16.63;8.85;;;;;;;-1.71;82.57;96705.53;5044369;28;20068;-58
2022/01/17 11:24:15;;;;;;;12.57;7.63;;;;;;;-1.93;81.87;96693.25;5074609;28;20026;-59
2022/01/17 11:26:42;;;;;;;14.00;8.00;;;;;;;-1.95;82.75;96702.63;5048455;28;20021;-58
2022/01/17 11:29:08;;;;;;;13.07;7.93;;;;;;;-1.86;82.27;96703.31;5042582;28;20036;-58
2022/01/17 11:31:34;;;;;;;16.55;8.60;;;;;;;-1.93;81.71;96703.41;5047442;28;20199;-58
2022/01/17 11:34:00;;;;;;;12.10;7.57;;;;;;;-1.76;81.41;96692.91;5049809;28;20052;-57
2022/01/17 11:36:26;;;;;;;13.07;7.50;;;;;;;-1.69;80.80;96685.19;5044119;28;20206;-58
2022/01/17 11:38:55;;;;;;;13.27;7.78;;;;;;;-1.73;80.62;96676.81;5039405;28;20048;-57
2022/01/17 11:41:28;;;;;;;17.77;8.93;;;;;;;-1.67;80.88;96678.38;5044241;28;20037;-57
2022/01/17 11:43:59;;;;;;;14.48;8.57;;;;;;;-1.64;80.84;96691.84;5046738;28;20104;-58
2022/01/17 11:46:29;;;;;;;13.25;8.57;;;;;;;-2.03;80.68;96609.84;5042345;28;20100;-59
2022/01/17 11:48:59;;;;;;;16.83;8.20;;;;;;;-1.67;80.68;96663.16;5043726;28;20059;-58
2022/01/17 11:51:46;;;;;;;15.27;8.13;;;;;;;-1.68;80.43;96646.25;5048703;28;20337;-58
2022/01/17 11:54:30;;;;;;;14.02;8.25;;;;;;;-1.52;80.84;96659.47;5041788;28;20025;-57
2022/01/17 11:57:04;;;;;;;14.55;8.55;;;;;;;-1.98;79.87;96606.34;5041903;28;20037;-58
2022/01/17 11:59:35;;;;;;;11.52;8.07;;;;;;;-1.67;80.65;96658.09;5048442;28;20405;-57